CheckWX is a tool to help pilots better visualize weather data.  It is not intended as a substitute for an official pre-flight weather briefing.

00:03:29 UTC

CYMJ METAR
Moose Jaw Air Vice Marshal C. M. McEwen Airport
Moose Jaw, Canada
Current

1 hour ago

CYMJ 242300Z 33019G26KT 15SM FEW100 17/M10 A2984 RMK CU1 SLP118
Observed
Apr-24 @ 23:00 UTC
Wind
  • 330° at 19 KTS
  • Gusting to 26 KTS
Visibility
15 SM
Flight Rules
VFR
Cloud Levels
  • Few at 10,000' AGL
Temperature
17°C / 63°F
Dewpoint
-10°C / 14°F
Humidity
15%
Altimeter
29.84" Hg
Pressure
1010.52 hPa
Previous

2 hours ago

CYMJ 242200Z 32024G29KT 15SM FEW100 18/M09 A2984 RMK CU2 SLP115
Observed
Apr-24 @ 22:00 UTC
Wind
  • 320° at 24 KTS
  • Gusting to 29 KTS
Visibility
15 SM
Flight Rules
VFR
Cloud Levels
  • Few at 10,000' AGL
Temperature
18°C / 64°F
Dewpoint
-9°C / 16°F
Humidity
15%
Altimeter
29.84" Hg
Pressure
1010.52 hPa
Previous

3 hours ago

CYMJ 242100Z 30016G27KT 15SM SCT100 18/M07 A2984 RMK CU3 SLP116
Observed
Apr-24 @ 21:00 UTC
Wind
  • 300° at 16 KTS
  • Gusting to 27 KTS
Visibility
15 SM
Flight Rules
VFR
Cloud Levels
  • Scattered at 10,000' AGL
Temperature
18°C / 64°F
Dewpoint
-7°C / 19°F
Humidity
18%
Altimeter
29.84" Hg
Pressure
1010.52 hPa